sensor_id;sensor_type;location;lat;lon;timestamp;temperature;humidity
19242;DHT22;9755;47.790;9.620;2023-07-13T00:01:47;17.30;99.90
19242;DHT22;9755;47.790;9.620;2023-07-13T00:04:16;17.30;99.90
19242;DHT22;9755;47.790;9.620;2023-07-13T00:06:43;17.30;99.90
19242;DHT22;9755;47.790;9.620;2023-07-13T00:09:12;17.40;99.90
19242;DHT22;9755;47.790;9.620;2023-07-13T00:11:39;17.30;99.90
19242;DHT22;9755;47.790;9.620;2023-07-13T00:14:07;17.40;99.90
19242;DHT22;9755;47.790;9.620;2023-07-13T00:16:38;17.30;99.90
19242;DHT22;9755;47.790;9.620;2023-07-13T00:19:06;17.30;99.90
19242;DHT22;9755;47.790;9.620;2023-07-13T00:21:33;17.30;99.90
19242;DHT22;9755;47.790;9.620;2023-07-13T00:24:00;17.20;99.90
19242;DHT22;9755;47.790;9.620;2023-07-13T00:26:28;17.20;99.90
19242;DHT22;9755;47.790;9.620;2023-07-13T00:28:58;17.20;99.90
19242;DHT22;9755;47.790;9.620;2023-07-13T00:31:25;17.20;99.90
19242;DHT22;9755;47.790;9.620;2023-07-13T00:33:53;17.20;99.90
19242;DHT22;9755;47.790;9.620;2023-07-13T00:36:20;17.20;99.90
19242;DHT22;9755;47.790;9.620;2023-07-13T00:38:47;17.20;99.90
19242;DHT22;9755;47.790;9.620;2023-07-13T00:41:14;17.20;99.90
19242;DHT22;9755;47.790;9.620;2023-07-13T00:43:41;17.20;99.90
19242;DHT22;9755;47.790;9.620;2023-07-13T00:46:15;17.20;99.90
19242;DHT22;9755;47.790;9.620;2023-07-13T00:48:44;17.20;99.90
19242;DHT22;9755;47.790;9.620;2023-07-13T00:51:15;17.10;99.90
19242;DHT22;9755;47.790;9.620;2023-07-13T00:53:44;17.10;99.90
19242;DHT22;9755;47.790;9.620;2023-07-13T00:56:11;17.10;99.90
19242;DHT22;9755;47.790;9.620;2023-07-13T00:58:39;17.10;99.90
19242;DHT22;9755;47.790;9.620;2023-07-13T01:01:06;17.10;99.90
19242;DHT22;9755;47.790;9.620;2023-07-13T01:03:34;17.10;99.90
19242;DHT22;9755;47.790;9.620;2023-07-13T01:06:03;17.10;99.90
19242;DHT22;9755;47.790;9.620;2023-07-13T01:08:32;17.10;99.90
19242;DHT22;9755;47.790;9.620;2023-07-13T01:10:59;17.10;99.90
19242;DHT22;9755;47.790;9.620;2023-07-13T01:13:26;17.10;99.90
19242;DHT22;9755;47.790;9.620;2023-07-13T01:15:55;17.10;99.90
19242;DHT22;9755;47.790;9.620;2023-07-13T01:18:26;17.10;99.90
19242;DHT22;9755;47.790;9.620;2023-07-13T01:20:56;17.10;99.90
19242;DHT22;9755;47.790;9.620;2023-07-13T01:23:23;17.10;99.90
19242;DHT22;9755;47.790;9.620;2023-07-13T01:25:51;17.00;99.90
19242;DHT22;9755;47.790;9.620;2023-07-13T01:28:19;17.00;99.90
19242;DHT22;9755;47.790;9.620;2023-07-13T01:30:46;17.00;99.90
19242;DHT22;9755;47.790;9.620;2023-07-13T01:33:15;16.90;99.90
19242;DHT22;9755;47.790;9.620;2023-07-13T01:35:43;16.90;99.90
19242;DHT22;9755;47.790;9.620;2023-07-13T01:38:15;16.90;99.90
19242;DHT22;9755;47.790;9.620;2023-07-13T01:40:43;16.80;99.90
19242;DHT22;9755;47.790;9.620;2023-07-13T01:43:11;16.80;99.90
19242;DHT22;9755;47.790;9.620;2023-07-13T01:45:38;16.80;99.90
19242;DHT22;9755;47.790;9.620;2023-07-13T01:48:05;16.80;99.90
19242;DHT22;9755;47.790;9.620;2023-07-13T01:50:33;16.80;99.90
19242;DHT22;9755;47.790;9.620;2023-07-13T01:53:00;16.90;99.90
19242;DHT22;9755;47.790;9.620;2023-07-13T01:55:29;16.90;99.90
19242;DHT22;9755;47.790;9.620;2023-07-13T01:57:56;17.00;99.90
19242;DHT22;9755;47.790;9.620;2023-07-13T02:00:24;17.00;99.90
19242;DHT22;9755;47.790;9.620;2023-07-13T02:02:51;17.00;99.90
19242;DHT22;9755;47.790;9.620;2023-07-13T02:05:19;17.00;99.90
19242;DHT22;9755;47.790;9.620;2023-07-13T02:07:46;17.10;99.90
19242;DHT22;9755;47.790;9.620;2023-07-13T02:10:13;17.20;99.90
19242;DHT22;9755;47.790;9.620;2023-07-13T02:12:42;17.30;99.90
19242;DHT22;9755;47.790;9.620;2023-07-13T02:15:09;17.40;99.90
19242;DHT22;9755;47.790;9.620;2023-07-13T02:17:36;17.50;99.90
19242;DHT22;9755;47.790;9.620;2023-07-13T02:20:05;17.50;99.90
19242;DHT22;9755;47.790;9.620;2023-07-13T02:22:33;17.30;99.90
19242;DHT22;9755;47.790;9.620;2023-07-13T02:25:00;17.40;99.90
19242;DHT22;9755;47.790;9.620;2023-07-13T02:27:27;17.40;99.90
19242;DHT22;9755;47.790;9.620;2023-07-13T02:29:55;17.30;99.90
19242;DHT22;9755;47.790;9.620;2023-07-13T02:32:22;17.40;99.90
19242;DHT22;9755;47.790;9.620;2023-07-13T02:34:51;17.40;99.90
19242;DHT22;9755;47.790;9.620;2023-07-13T02:37:19;17.40;99.90
19242;DHT22;9755;47.790;9.620;2023-07-13T02:39:47;17.40;99.90
19242;DHT22;9755;47.790;9.620;2023-07-13T02:42:14;17.40;99.90
19242;DHT22;9755;47.790;9.620;2023-07-13T02:44:41;17.40;99.90
19242;DHT22;9755;47.790;9.620;2023-07-13T02:47:09;17.30;99.90
19242;DHT22;9755;47.790;9.620;2023-07-13T02:49:36;17.30;99.90
19242;DHT22;9755;47.790;9.620;2023-07-13T02:52:04;17.30;99.90
19242;DHT22;9755;47.790;9.620;2023-07-13T02:54:32;17.30;99.90
19242;DHT22;9755;47.790;9.620;2023-07-13T02:56:59;17.30;99.90
19242;DHT22;9755;47.790;9.620;2023-07-13T02:59:26;17.20;99.90
19242;DHT22;9755;47.790;9.620;2023-07-13T03:01:53;17.00;99.90
19242;DHT22;9755;47.790;9.620;2023-07-13T03:04:22;17.00;99.90
19242;DHT22;9755;47.790;9.620;2023-07-13T03:06:48;17.00;99.90
19242;DHT22;9755;47.790;9.620;2023-07-13T03:09:15;17.00;99.90
19242;DHT22;9755;47.790;9.620;2023-07-13T03:11:43;17.00;99.90
19242;DHT22;9755;47.790;9.620;2023-07-13T03:14:10;17.00;99.90
19242;DHT22;9755;47.790;9.620;2023-07-13T03:16:37;17.00;99.90
19242;DHT22;9755;47.790;9.620;2023-07-13T03:19:04;17.00;99.90
19242;DHT22;9755;47.790;9.620;2023-07-13T03:21:32;17.00;99.90
19242;DHT22;9755;47.790;9.620;2023-07-13T03:23:59;17.00;99.90
19242;DHT22;9755;47.790;9.620;2023-07-13T03:26:26;16.90;99.90
19242;DHT22;9755;47.790;9.620;2023-07-13T03:28:53;16.90;99.90
19242;DHT22;9755;47.790;9.620;2023-07-13T03:31:22;16.90;99.90
19242;DHT22;9755;47.790;9.620;2023-07-13T03:33:50;17.00;99.90
19242;DHT22;9755;47.790;9.620;2023-07-13T03:36:19;17.00;99.90
19242;DHT22;9755;47.790;9.620;2023-07-13T03:38:49;17.00;99.90
19242;DHT22;9755;47.790;9.620;2023-07-13T03:41:18;17.00;99.90
19242;DHT22;9755;47.790;9.620;2023-07-13T03:43:45;17.00;99.90
19242;DHT22;9755;47.790;9.620;2023-07-13T03:46:13;17.00;99.90
19242;DHT22;9755;47.790;9.620;2023-07-13T03:48:40;17.00;99.90
19242;DHT22;9755;47.790;9.620;2023-07-13T03:51:09;16.90;99.90
19242;DHT22;9755;47.790;9.620;2023-07-13T03:53:39;16.90;99.90
19242;DHT22;9755;47.790;9.620;2023-07-13T03:56:08;16.90;99.90
19242;DHT22;9755;47.790;9.620;2023-07-13T03:58:37;17.00;99.90
19242;DHT22;9755;47.790;9.620;2023-07-13T04:01:06;16.90;99.90
19242;DHT22;9755;47.790;9.620;2023-07-13T04:03:34;17.00;99.90
19242;DHT22;9755;47.790;9.620;2023-07-13T04:06:02;16.90;99.90
19242;DHT22;9755;47.790;9.620;2023-07-13T04:08:31;17.00;99.90
19242;DHT22;9755;47.790;9.620;2023-07-13T04:10:59;17.00;99.90
19242;DHT22;9755;47.790;9.620;2023-07-13T04:13:28;17.00;99.90
19242;DHT22;9755;47.790;9.620;2023-07-13T04:15:55;17.10;99.90
19242;DHT22;9755;47.790;9.620;2023-07-13T04:18:22;17.00;99.90
19242;DHT22;9755;47.790;9.620;2023-07-13T04:20:50;17.00;99.90
19242;DHT22;9755;47.790;9.620;2023-07-13T04:23:18;17.10;99.90
19242;DHT22;9755;47.790;9.620;2023-07-13T04:25:45;17.10;99.90
19242;DHT22;9755;47.790;9.620;2023-07-13T04:28:15;17.10;99.90
19242;DHT22;9755;47.790;9.620;2023-07-13T04:30:44;17.20;99.90
19242;DHT22;9755;47.790;9.620;2023-07-13T04:33:11;17.20;99.90
19242;DHT22;9755;47.790;9.620;2023-07-13T04:35:38;17.20;99.90
19242;DHT22;9755;47.790;9.620;2023-07-13T04:38:06;17.30;99.90
19242;DHT22;9755;47.790;9.620;2023-07-13T04:40:33;17.30;99.90
19242;DHT22;9755;47.790;9.620;2023-07-13T04:43:00;17.40;99.90
19242;DHT22;9755;47.790;9.620;2023-07-13T04:45:27;17.40;99.90
19242;DHT22;9755;47.790;9.620;2023-07-13T04:47:55;17.30;99.90
19242;DHT22;9755;47.790;9.620;2023-07-13T04:50:22;17.30;99.90
19242;DHT22;9755;47.790;9.620;2023-07-13T04:52:50;17.30;99.90
19242;DHT22;9755;47.790;9.620;2023-07-13T04:55:18;17.30;99.90
19242;DHT22;9755;47.790;9.620;2023-07-13T04:57:45;17.40;99.90
19242;DHT22;9755;47.790;9.620;2023-07-13T05:00:14;17.50;99.90
19242;DHT22;9755;47.790;9.620;2023-07-13T05:02:43;17.60;99.90
19242;DHT22;9755;47.790;9.620;2023-07-13T05:05:12;17.60;99.90
19242;DHT22;9755;47.790;9.620;2023-07-13T05:07:39;17.70;99.90
19242;DHT22;9755;47.790;9.620;2023-07-13T05:10:08;17.80;99.90
19242;DHT22;9755;47.790;9.620;2023-07-13T05:12:35;17.90;99.90
19242;DHT22;9755;47.790;9.620;2023-07-13T05:15:02;17.90;99.90
19242;DHT22;9755;47.790;9.620;2023-07-13T05:17:29;18.00;99.90
19242;DHT22;9755;47.790;9.620;2023-07-13T05:19:56;18.10;99.90
19242;DHT22;9755;47.790;9.620;2023-07-13T05:22:25;18.10;99.90
19242;DHT22;9755;47.790;9.620;2023-07-13T05:24:52;18.10;99.90
19242;DHT22;9755;47.790;9.620;2023-07-13T05:27:19;18.20;99.90
19242;DHT22;9755;47.790;9.620;2023-07-13T05:29:46;18.20;99.90
19242;DHT22;9755;47.790;9.620;2023-07-13T05:32:13;18.20;99.90
19242;DHT22;9755;47.790;9.620;2023-07-13T05:34:40;18.20;99.90
19242;DHT22;9755;47.790;9.620;2023-07-13T05:37:08;18.20;99.90
19242;DHT22;9755;47.790;9.620;2023-07-13T05:39:36;18.40;99.90
19242;DHT22;9755;47.790;9.620;2023-07-13T05:42:04;18.50;99.90
19242;DHT22;9755;47.790;9.620;2023-07-13T05:44:31;18.50;99.90
19242;DHT22;9755;47.790;9.620;2023-07-13T05:46:58;18.60;99.90
19242;DHT22;9755;47.790;9.620;2023-07-13T05:49:25;18.80;99.90
19242;DHT22;9755;47.790;9.620;2023-07-13T05:51:52;18.90;99.90
19242;DHT22;9755;47.790;9.620;2023-07-13T05:54:19;19.10;99.90
19242;DHT22;9755;47.790;9.620;2023-07-13T05:56:47;19.20;99.90
19242;DHT22;9755;47.790;9.620;2023-07-13T05:59:14;19.10;99.90
19242;DHT22;9755;47.790;9.620;2023-07-13T06:01:41;19.30;99.90
19242;DHT22;9755;47.790;9.620;2023-07-13T06:04:08;19.30;99.90
19242;DHT22;9755;47.790;9.620;2023-07-13T06:06:36;19.30;99.90
19242;DHT22;9755;47.790;9.620;2023-07-13T06:09:03;19.30;99.90
19242;DHT22;9755;47.790;9.620;2023-07-13T06:11:30;19.50;99.90
19242;DHT22;9755;47.790;9.620;2023-07-13T06:13:58;19.50;99.90
19242;DHT22;9755;47.790;9.620;2023-07-13T06:16:25;19.60;99.90
19242;DHT22;9755;47.790;9.620;2023-07-13T06:18:52;19.70;99.90
19242;DHT22;9755;47.790;9.620;2023-07-13T06:21:21;19.80;99.90
19242;DHT22;9755;47.790;9.620;2023-07-13T06:23:49;20.00;99.90
19242;DHT22;9755;47.790;9.620;2023-07-13T06:26:18;20.10;99.90
19242;DHT22;9755;47.790;9.620;2023-07-13T06:28:45;20.20;99.90
19242;DHT22;9755;47.790;9.620;2023-07-13T06:31:14;20.20;99.90
19242;DHT22;9755;47.790;9.620;2023-07-13T06:33:41;20.30;99.90
19242;DHT22;9755;47.790;9.620;2023-07-13T06:36:09;20.40;99.90
19242;DHT22;9755;47.790;9.620;2023-07-13T06:38:36;20.30;99.90
19242;DHT22;9755;47.790;9.620;2023-07-13T06:41:04;20.40;99.90
19242;DHT22;9755;47.790;9.620;2023-07-13T06:43:31;20.40;99.90
19242;DHT22;9755;47.790;9.620;2023-07-13T06:45:58;20.30;99.90
19242;DHT22;9755;47.790;9.620;2023-07-13T06:48:28;20.30;99.90
19242;DHT22;9755;47.790;9.620;2023-07-13T06:50:55;20.30;99.90
19242;DHT22;9755;47.790;9.620;2023-07-13T06:53:22;20.30;99.90
19242;DHT22;9755;47.790;9.620;2023-07-13T06:55:50;20.30;99.90
19242;DHT22;9755;47.790;9.620;2023-07-13T06:58:18;20.30;99.90
19242;DHT22;9755;47.790;9.620;2023-07-13T07:00:46;20.40;99.90
19242;DHT22;9755;47.790;9.620;2023-07-13T07:03:16;20.50;99.90
19242;DHT22;9755;47.790;9.620;2023-07-13T07:05:45;20.50;99.90
19242;DHT22;9755;47.790;9.620;2023-07-13T07:08:12;20.60;99.90
19242;DHT22;9755;47.790;9.620;2023-07-13T07:10:40;20.70;99.90
19242;DHT22;9755;47.790;9.620;2023-07-13T07:13:07;20.90;99.90
19242;DHT22;9755;47.790;9.620;2023-07-13T07:15:35;21.00;99.90
19242;DHT22;9755;47.790;9.620;2023-07-13T07:18:02;20.80;99.90
19242;DHT22;9755;47.790;9.620;2023-07-13T07:20:29;20.70;99.90
19242;DHT22;9755;47.790;9.620;2023-07-13T07:22:59;20.50;99.90
19242;DHT22;9755;47.790;9.620;2023-07-13T07:25:27;20.30;99.90
19242;DHT22;9755;47.790;9.620;2023-07-13T07:27:57;20.30;99.90
19242;DHT22;9755;47.790;9.620;2023-07-13T07:30:25;20.50;99.90
19242;DHT22;9755;47.790;9.620;2023-07-13T07:32:52;20.70;99.90
19242;DHT22;9755;47.790;9.620;2023-07-13T07:35:19;21.00;99.90
19242;DHT22;9755;47.790;9.620;2023-07-13T07:37:46;20.90;99.90
19242;DHT22;9755;47.790;9.620;2023-07-13T07:40:15;20.90;99.90
19242;DHT22;9755;47.790;9.620;2023-07-13T07:42:42;20.90;99.90
19242;DHT22;9755;47.790;9.620;2023-07-13T07:45:10;21.10;99.90
19242;DHT22;9755;47.790;9.620;2023-07-13T07:47:37;21.10;99.90
19242;DHT22;9755;47.790;9.620;2023-07-13T07:50:05;21.20;99.90
19242;DHT22;9755;47.790;9.620;2023-07-13T07:52:32;21.40;99.90
19242;DHT22;9755;47.790;9.620;2023-07-13T07:54:59;21.50;99.90
19242;DHT22;9755;47.790;9.620;2023-07-13T07:57:28;21.60;99.90
19242;DHT22;9755;47.790;9.620;2023-07-13T07:59:55;21.60;99.90
19242;DHT22;9755;47.790;9.620;2023-07-13T08:02:22;21.60;99.90
19242;DHT22;9755;47.790;9.620;2023-07-13T08:04:49;21.60;99.90
19242;DHT22;9755;47.790;9.620;2023-07-13T08:07:16;21.80;99.90
19242;DHT22;9755;47.790;9.620;2023-07-13T08:09:43;21.90;99.90
19242;DHT22;9755;47.790;9.620;2023-07-13T08:12:10;22.10;99.90
19242;DHT22;9755;47.790;9.620;2023-07-13T08:14:38;22.10;99.90
19242;DHT22;9755;47.790;9.620;2023-07-13T08:17:06;22.30;99.90
19242;DHT22;9755;47.790;9.620;2023-07-13T08:19:33;22.00;99.90
19242;DHT22;9755;47.790;9.620;2023-07-13T08:22:00;21.70;99.90
19242;DHT22;9755;47.790;9.620;2023-07-13T08:24:27;21.30;99.90
19242;DHT22;9755;47.790;9.620;2023-07-13T08:26:54;21.00;99.90
19242;DHT22;9755;47.790;9.620;2023-07-13T08:29:21;21.30;99.90
19242;DHT22;9755;47.790;9.620;2023-07-13T08:31:49;21.70;99.90
19242;DHT22;9755;47.790;9.620;2023-07-13T08:34:16;22.30;99.90
19242;DHT22;9755;47.790;9.620;2023-07-13T08:36:43;22.50;99.90
19242;DHT22;9755;47.790;9.620;2023-07-13T08:39:10;22.40;99.90
19242;DHT22;9755;47.790;9.620;2023-07-13T08:41:37;22.70;99.90
19242;DHT22;9755;47.790;9.620;2023-07-13T08:44:06;22.60;99.90
19242;DHT22;9755;47.790;9.620;2023-07-13T08:46:38;22.20;99.90
19242;DHT22;9755;47.790;9.620;2023-07-13T08:49:12;22.10;99.90
19242;DHT22;9755;47.790;9.620;2023-07-13T08:51:43;22.50;99.90
19242;DHT22;9755;47.790;9.620;2023-07-13T08:54:19;22.60;99.90
19242;DHT22;9755;47.790;9.620;2023-07-13T08:56:49;22.80;99.90
19242;DHT22;9755;47.790;9.620;2023-07-13T08:59:21;23.00;99.90
19242;DHT22;9755;47.790;9.620;2023-07-13T09:02:20;22.90;99.90
19242;DHT22;9755;47.790;9.620;2023-07-13T09:04:54;23.30;99.90
19242;DHT22;9755;47.790;9.620;2023-07-13T09:07:29;23.90;99.90
19242;DHT22;9755;47.790;9.620;2023-07-13T09:10:08;24.20;97.30
19242;DHT22;9755;47.790;9.620;2023-07-13T09:12:48;23.80;99.90
19242;DHT22;9755;47.790;9.620;2023-07-13T09:15:23;23.70;99.90
19242;DHT22;9755;47.790;9.620;2023-07-13T09:17:52;23.40;99.90
19242;DHT22;9755;47.790;9.620;2023-07-13T09:20:26;23.10;99.90
19242;DHT22;9755;47.790;9.620;2023-07-13T09:22:56;23.10;99.90
19242;DHT22;9755;47.790;9.620;2023-07-13T09:25:29;23.10;99.90
19242;DHT22;9755;47.790;9.620;2023-07-13T09:28:01;23.30;99.90
19242;DHT22;9755;47.790;9.620;2023-07-13T09:30:37;23.80;99.90
19242;DHT22;9755;47.790;9.620;2023-07-13T09:33:07;24.30;97.60
19242;DHT22;9755;47.790;9.620;2023-07-13T09:35:36;24.80;97.50
19242;DHT22;9755;47.790;9.620;2023-07-13T09:38:11;25.00;95.20
19242;DHT22;9755;47.790;9.620;2023-07-13T09:43:25;25.60;90.80
19242;DHT22;9755;47.790;9.620;2023-07-13T09:45:54;25.10;87.20
19242;DHT22;9755;47.790;9.620;2023-07-13T09:48:22;25.40;87.60
19242;DHT22;9755;47.790;9.620;2023-07-13T09:50:54;25.00;86.50
19242;DHT22;9755;47.790;9.620;2023-07-13T09:53:22;24.20;90.10
19242;DHT22;9755;47.790;9.620;2023-07-13T09:55:50;24.10;90.60
19242;DHT22;9755;47.790;9.620;2023-07-13T09:58:19;24.10;90.90
19242;DHT22;9755;47.790;9.620;2023-07-13T10:00:55;24.40;91.50
19242;DHT22;9755;47.790;9.620;2023-07-13T10:03:25;24.50;91.50
19242;DHT22;9755;47.790;9.620;2023-07-13T10:05:54;24.30;92.30
19242;DHT22;9755;47.790;9.620;2023-07-13T10:08:29;24.00;92.80
19242;DHT22;9755;47.790;9.620;2023-07-13T10:10:59;23.30;95.20
19242;DHT22;9755;47.790;9.620;2023-07-13T10:13:29;23.50;95.10
19242;DHT22;9755;47.790;9.620;2023-07-13T10:15:59;23.80;94.30
19242;DHT22;9755;47.790;9.620;2023-07-13T10:18:26;24.40;92.70
19242;DHT22;9755;47.790;9.620;2023-07-13T10:21:08;24.30;93.30
19242;DHT22;9755;47.790;9.620;2023-07-13T10:23:37;25.40;91.80
19242;DHT22;9755;47.790;9.620;2023-07-13T10:26:05;25.70;90.40
19242;DHT22;9755;47.790;9.620;2023-07-13T10:28:37;25.80;88.70
19242;DHT22;9755;47.790;9.620;2023-07-13T10:31:10;25.50;88.00
19242;DHT22;9755;47.790;9.620;2023-07-13T10:33:38;23.80;90.90
19242;DHT22;9755;47.790;9.620;2023-07-13T10:36:28;23.80;91.20
19242;DHT22;9755;47.790;9.620;2023-07-13T10:38:59;23.50;91.80
19242;DHT22;9755;47.790;9.620;2023-07-13T10:41:29;23.10;92.40
19242;DHT22;9755;47.790;9.620;2023-07-13T10:43:58;23.50;92.60
19242;DHT22;9755;47.790;9.620;2023-07-13T10:46:27;24.20;92.40
19242;DHT22;9755;47.790;9.620;2023-07-13T10:48:58;24.50;91.40
19242;DHT22;9755;47.790;9.620;2023-07-13T10:51:28;24.60;90.50
19242;DHT22;9755;47.790;9.620;2023-07-13T10:54:11;24.30;91.70
19242;DHT22;9755;47.790;9.620;2023-07-13T10:56:39;24.20;91.10
19242;DHT22;9755;47.790;9.620;2023-07-13T10:59:11;23.90;91.00
19242;DHT22;9755;47.790;9.620;2023-07-13T11:01:41;24.20;92.00
19242;DHT22;9755;47.790;9.620;2023-07-13T11:04:13;24.30;92.20
19242;DHT22;9755;47.790;9.620;2023-07-13T11:06:43;24.00;90.60
19242;DHT22;9755;47.790;9.620;2023-07-13T11:09:36;23.10;92.10
19242;DHT22;9755;47.790;9.620;2023-07-13T11:12:08;22.80;93.00
19242;DHT22;9755;47.790;9.620;2023-07-13T11:14:36;22.80;94.20
19242;DHT22;9755;47.790;9.620;2023-07-13T11:17:24;23.10;93.40
19242;DHT22;9755;47.790;9.620;2023-07-13T11:19:52;23.80;92.00
19242;DHT22;9755;47.790;9.620;2023-07-13T11:22:26;24.20;91.50
19242;DHT22;9755;47.790;9.620;2023-07-13T11:25:25;24.30;90.50
19242;DHT22;9755;47.790;9.620;2023-07-13T11:28:05;24.60;90.10
19242;DHT22;9755;47.790;9.620;2023-07-13T11:30:36;24.40;90.40
19242;DHT22;9755;47.790;9.620;2023-07-13T11:33:13;24.60;90.20
19242;DHT22;9755;47.790;9.620;2023-07-13T11:38:33;26.20;86.30
19242;DHT22;9755;47.790;9.620;2023-07-13T11:41:05;26.30;84.40
19242;DHT22;9755;47.790;9.620;2023-07-13T11:43:33;26.40;80.70
19242;DHT22;9755;47.790;9.620;2023-07-13T11:46:13;26.60;79.80
19242;DHT22;9755;47.790;9.620;2023-07-13T11:48:41;26.00;81.80
19242;DHT22;9755;47.790;9.620;2023-07-13T11:51:17;27.10;83.40
19242;DHT22;9755;47.790;9.620;2023-07-13T11:53:49;28.40;79.50
19242;DHT22;9755;47.790;9.620;2023-07-13T11:56:18;26.90;77.00
19242;DHT22;9755;47.790;9.620;2023-07-13T11:58:48;26.60;80.60
19242;DHT22;9755;47.790;9.620;2023-07-13T12:01:20;25.70;82.90
19242;DHT22;9755;47.790;9.620;2023-07-13T12:03:48;26.40;82.10
19242;DHT22;9755;47.790;9.620;2023-07-13T12:06:26;26.20;79.60
19242;DHT22;9755;47.790;9.620;2023-07-13T12:08:57;25.40;81.70
19242;DHT22;9755;47.790;9.620;2023-07-13T12:11:25;26.20;81.60
19242;DHT22;9755;47.790;9.620;2023-07-13T12:13:52;27.70;81.10
19242;DHT22;9755;47.790;9.620;2023-07-13T12:16:28;28.40;75.20
19242;DHT22;9755;47.790;9.620;2023-07-13T12:18:56;28.90;73.00
19242;DHT22;9755;47.790;9.620;2023-07-13T12:21:29;28.90;69.70
19242;DHT22;9755;47.790;9.620;2023-07-13T12:23:59;28.60;68.10
19242;DHT22;9755;47.790;9.620;2023-07-13T12:26:28;28.50;69.50
19242;DHT22;9755;47.790;9.620;2023-07-13T12:28:58;28.50;68.60
19242;DHT22;9755;47.790;9.620;2023-07-13T12:31:33;28.50;68.70
19242;DHT22;9755;47.790;9.620;2023-07-13T12:34:02;29.50;67.20
19242;DHT22;9755;47.790;9.620;2023-07-13T12:36:32;30.20;63.80
19242;DHT22;9755;47.790;9.620;2023-07-13T12:39:11;29.40;61.80
19242;DHT22;9755;47.790;9.620;2023-07-13T12:41:39;30.00;61.50
19242;DHT22;9755;47.790;9.620;2023-07-13T12:44:11;29.50;61.40
19242;DHT22;9755;47.790;9.620;2023-07-13T12:46:39;30.30;60.90
19242;DHT22;9755;47.790;9.620;2023-07-13T12:49:07;29.30;59.80
19242;DHT22;9755;47.790;9.620;2023-07-13T12:51:36;28.50;62.60
19242;DHT22;9755;47.790;9.620;2023-07-13T12:54:15;27.00;66.50
19242;DHT22;9755;47.790;9.620;2023-07-13T12:56:43;27.60;62.60
19242;DHT22;9755;47.790;9.620;2023-07-13T12:59:20;28.10;64.30
19242;DHT22;9755;47.790;9.620;2023-07-13T13:01:49;28.70;62.30
19242;DHT22;9755;47.790;9.620;2023-07-13T13:04:16;28.40;61.60
19242;DHT22;9755;47.790;9.620;2023-07-13T13:06:47;28.00;62.50
19242;DHT22;9755;47.790;9.620;2023-07-13T13:09:17;27.90;60.80
19242;DHT22;9755;47.790;9.620;2023-07-13T13:11:45;27.80;62.70
19242;DHT22;9755;47.790;9.620;2023-07-13T13:14:13;27.80;64.30
19242;DHT22;9755;47.790;9.620;2023-07-13T13:16:47;28.30;62.10
19242;DHT22;9755;47.790;9.620;2023-07-13T13:19:18;28.30;62.30
19242;DHT22;9755;47.790;9.620;2023-07-13T13:21:47;28.10;61.70
19242;DHT22;9755;47.790;9.620;2023-07-13T13:24:19;27.70;62.60
19242;DHT22;9755;47.790;9.620;2023-07-13T13:26:47;27.10;64.00
19242;DHT22;9755;47.790;9.620;2023-07-13T13:29:15;27.10;67.90
19242;DHT22;9755;47.790;9.620;2023-07-13T13:31:43;27.50;67.40
19242;DHT22;9755;47.790;9.620;2023-07-13T13:34:11;27.80;64.30
19242;DHT22;9755;47.790;9.620;2023-07-13T13:36:40;27.00;63.80
19242;DHT22;9755;47.790;9.620;2023-07-13T13:39:21;27.10;63.80
19242;DHT22;9755;47.790;9.620;2023-07-13T13:41:49;26.50;66.70
19242;DHT22;9755;47.790;9.620;2023-07-13T13:44:18;26.50;66.90
19242;DHT22;9755;47.790;9.620;2023-07-13T13:46:47;26.40;65.90
19242;DHT22;9755;47.790;9.620;2023-07-13T13:49:17;26.80;66.60
19242;DHT22;9755;47.790;9.620;2023-07-13T13:51:45;26.70;66.10
19242;DHT22;9755;47.790;9.620;2023-07-13T13:54:13;26.80;66.50
19242;DHT22;9755;47.790;9.620;2023-07-13T13:56:44;26.50;63.20
19242;DHT22;9755;47.790;9.620;2023-07-13T13:59:12;26.30;66.80
19242;DHT22;9755;47.790;9.620;2023-07-13T14:01:40;26.70;63.50
19242;DHT22;9755;47.790;9.620;2023-07-13T14:04:14;27.10;62.70
19242;DHT22;9755;47.790;9.620;2023-07-13T14:06:43;27.60;63.80
19242;DHT22;9755;47.790;9.620;2023-07-13T14:09:11;27.40;61.50
19242;DHT22;9755;47.790;9.620;2023-07-13T14:11:40;26.80;62.20
19242;DHT22;9755;47.790;9.620;2023-07-13T14:14:15;26.50;65.10
19242;DHT22;9755;47.790;9.620;2023-07-13T14:16:44;26.10;65.10
19242;DHT22;9755;47.790;9.620;2023-07-13T14:19:12;25.80;66.90
19242;DHT22;9755;47.790;9.620;2023-07-13T14:21:40;25.70;69.70
19242;DHT22;9755;47.790;9.620;2023-07-13T14:24:08;25.90;67.00
19242;DHT22;9755;47.790;9.620;2023-07-13T14:26:37;26.30;67.30
19242;DHT22;9755;47.790;9.620;2023-07-13T14:29:13;26.60;66.50
19242;DHT22;9755;47.790;9.620;2023-07-13T14:31:41;26.80;63.80
19242;DHT22;9755;47.790;9.620;2023-07-13T14:34:09;27.00;65.10
19242;DHT22;9755;47.790;9.620;2023-07-13T14:36:39;27.20;64.60
19242;DHT22;9755;47.790;9.620;2023-07-13T14:39:11;27.40;63.00
19242;DHT22;9755;47.790;9.620;2023-07-13T14:41:39;27.20;63.50
19242;DHT22;9755;47.790;9.620;2023-07-13T14:44:12;27.80;60.70
19242;DHT22;9755;47.790;9.620;2023-07-13T14:46:40;27.40;59.40
19242;DHT22;9755;47.790;9.620;2023-07-13T14:49:15;27.20;59.90
19242;DHT22;9755;47.790;9.620;2023-07-13T14:51:43;27.10;62.10
19242;DHT22;9755;47.790;9.620;2023-07-13T14:54:10;26.70;62.70
19242;DHT22;9755;47.790;9.620;2023-07-13T14:56:38;26.10;63.30
19242;DHT22;9755;47.790;9.620;2023-07-13T14:59:05;26.20;64.20
19242;DHT22;9755;47.790;9.620;2023-07-13T15:01:34;26.60;62.40
19242;DHT22;9755;47.790;9.620;2023-07-13T15:04:02;26.30;61.10
19242;DHT22;9755;47.790;9.620;2023-07-13T15:06:30;25.90;63.10
19242;DHT22;9755;47.790;9.620;2023-07-13T15:08:58;26.60;63.40
19242;DHT22;9755;47.790;9.620;2023-07-13T15:11:25;26.90;61.50
19242;DHT22;9755;47.790;9.620;2023-07-13T15:13:52;26.50;62.10
19242;DHT22;9755;47.790;9.620;2023-07-13T15:16:21;26.30;63.10
19242;DHT22;9755;47.790;9.620;2023-07-13T15:18:50;26.10;63.80
19242;DHT22;9755;47.790;9.620;2023-07-13T15:21:20;25.80;66.00
19242;DHT22;9755;47.790;9.620;2023-07-13T15:23:48;26.20;65.30
19242;DHT22;9755;47.790;9.620;2023-07-13T15:26:16;26.20;63.30
19242;DHT22;9755;47.790;9.620;2023-07-13T15:28:44;26.20;61.80
19242;DHT22;9755;47.790;9.620;2023-07-13T15:31:19;26.40;63.10
19242;DHT22;9755;47.790;9.620;2023-07-13T15:33:47;26.00;64.00
19242;DHT22;9755;47.790;9.620;2023-07-13T15:36:17;26.50;64.70
19242;DHT22;9755;47.790;9.620;2023-07-13T15:38:44;27.00;62.90
19242;DHT22;9755;47.790;9.620;2023-07-13T15:41:19;27.00;62.10
19242;DHT22;9755;47.790;9.620;2023-07-13T15:43:49;26.20;61.90
19242;DHT22;9755;47.790;9.620;2023-07-13T15:46:18;26.50;62.50
19242;DHT22;9755;47.790;9.620;2023-07-13T15:48:46;26.50;62.60
19242;DHT22;9755;47.790;9.620;2023-07-13T15:51:20;26.90;62.10
19242;DHT22;9755;47.790;9.620;2023-07-13T15:53:48;27.00;61.40
19242;DHT22;9755;47.790;9.620;2023-07-13T15:56:20;26.70;62.80
19242;DHT22;9755;47.790;9.620;2023-07-13T15:58:49;26.50;63.50
19242;DHT22;9755;47.790;9.620;2023-07-13T16:01:16;26.40;61.70
19242;DHT22;9755;47.790;9.620;2023-07-13T16:03:45;26.40;62.10